createdAt,value
2018-07-26T00:02:00.446Z,101123.04
2018-07-26T00:04:29.348Z,101123.34
2018-07-26T00:06:58.182Z,101123.04
2018-07-26T00:09:27.095Z,101125.69
2018-07-26T00:11:56.012Z,101133.17
2018-07-26T00:14:24.904Z,101138.01
2018-07-26T00:16:53.776Z,101138.19
2018-07-26T00:19:22.664Z,101132.55
2018-07-26T00:21:51.798Z,101136.09
2018-07-26T00:24:20.634Z,101135.55
2018-07-26T00:26:49.575Z,101130.77
2018-07-26T00:29:18.478Z,101123.47
2018-07-26T00:31:48.788Z,101130.86
2018-07-26T00:34:17.699Z,101123.52
2018-07-26T00:36:46.685Z,101124.28
2018-07-26T00:39:15.505Z,101120.06
2018-07-26T00:41:44.384Z,101123.17
2018-07-26T00:44:13.265Z,101113.45
2018-07-26T00:46:42.138Z,101118.14
2018-07-26T00:49:11.004Z,101113.89
2018-07-26T00:51:39.870Z,101115.16
2018-07-26T00:54:10.230Z,101113.45
2018-07-26T00:56:39.122Z,101116.23
2018-07-26T00:59:08.039Z,101128.09
2018-07-26T01:01:36.917Z,101123.94
2018-07-26T01:04:05.934Z,101122.00
2018-07-26T01:06:34.784Z,101114.75
2018-07-26T01:09:04.308Z,101111.44
2018-07-26T01:11:33.210Z,101109.42
2018-07-26T01:14:02.089Z,101108.03
2018-07-26T01:16:32.327Z,101115.77
2018-07-26T01:19:01.190Z,101108.52
2018-07-26T01:21:30.077Z,101115.22
2018-07-26T01:23:58.982Z,101120.91
2018-07-26T01:26:27.990Z,101120.58
2018-07-26T01:28:56.930Z,101118.39
2018-07-26T01:31:25.696Z,101117.77
2018-07-26T01:33:54.775Z,101124.91
2018-07-26T01:36:23.743Z,101120.44
2018-07-26T01:39:28.295Z,101117.61
2018-07-26T01:41:57.183Z,101124.66
2018-07-26T01:44:26.348Z,101122.70
2018-07-26T01:46:55.236Z,101122.73
2018-07-26T01:49:24.156Z,101121.05
2018-07-26T01:51:53.075Z,101124.44
2018-07-26T01:54:21.992Z,101126.58
2018-07-26T01:56:50.925Z,101121.42
2018-07-26T01:59:19.810Z,101124.03
2018-07-26T02:01:48.807Z,101107.97
2018-07-26T02:04:17.697Z,101111.72
2018-07-26T02:06:46.496Z,101115.72
2018-07-26T02:09:15.481Z,101116.53
2018-07-26T02:11:44.282Z,101111.56
2018-07-26T02:14:30.798Z,101106.58
2018-07-26T02:16:59.691Z,101110.42
2018-07-26T02:19:28.565Z,101110.36
2018-07-26T02:21:57.658Z,101106.39
2018-07-26T02:24:26.650Z,101106.96
2018-07-26T02:26:55.431Z,101103.69
2018-07-26T02:29:24.344Z,101104.85
2018-07-26T02:31:53.319Z,101106.36
2018-07-26T02:34:22.151Z,101110.05
2018-07-26T02:36:51.101Z,101108.06
2018-07-26T02:39:19.908Z,101108.13
2018-07-26T02:41:48.854Z,101107.08
2018-07-26T02:44:17.847Z,101103.67
2018-07-26T02:46:46.708Z,101105.59
2018-07-26T02:49:15.550Z,101105.45
2018-07-26T02:51:44.540Z,101096.26
2018-07-26T02:54:13.437Z,101095.56
2018-07-26T02:56:42.393Z,101102.23
2018-07-26T02:59:11.258Z,101098.73
2018-07-26T03:01:40.304Z,101101.67
2018-07-26T03:04:09.271Z,101100.72
2018-07-26T03:06:38.157Z,101103.64
2018-07-26T03:09:08.354Z,101098.91
2018-07-26T03:11:37.287Z,101098.81
2018-07-26T03:14:06.465Z,101094.87
2018-07-26T03:16:35.352Z,101100.95
2018-07-26T03:19:04.286Z,101104.14
2018-07-26T03:21:33.169Z,101097.80
2018-07-26T03:24:02.088Z,101090.14
2018-07-26T03:26:30.958Z,101094.77
2018-07-26T03:29:02.689Z,101087.42
2018-07-26T03:31:31.542Z,101091.61
2018-07-26T03:34:00.491Z,101091.72
2018-07-26T03:36:29.381Z,101095.77
2018-07-26T03:38:58.317Z,101092.81
2018-07-26T03:41:27.238Z,101092.50
2018-07-26T03:43:56.100Z,101089.44
2018-07-26T03:46:24.992Z,101087.82
2018-07-26T03:48:53.873Z,101083.98
2018-07-26T03:51:30.292Z,101083.70
2018-07-26T03:53:59.121Z,101089.77
2018-07-26T03:56:28.080Z,101088.28
2018-07-26T03:58:56.923Z,101092.32
2018-07-26T04:01:25.843Z,101093.91
2018-07-26T04:03:54.999Z,101089.12
2018-07-26T04:06:24.206Z,101092.22
2018-07-26T04:08:53.286Z,101091.89
2018-07-26T04:11:22.157Z,101092.89
2018-07-26T04:13:52.274Z,101091.76
2018-07-26T04:16:21.213Z,101097.95
2018-07-26T04:18:50.097Z,101097.64
2018-07-26T04:21:19.001Z,101092.42
2018-07-26T04:23:47.962Z,101093.74
2018-07-26T04:26:16.845Z,101100.91
2018-07-26T04:28:45.735Z,101093.91
2018-07-26T04:31:14.706Z,101091.36
2018-07-26T04:33:43.565Z,101098.06
2018-07-26T04:36:12.547Z,101094.66
2018-07-26T04:38:41.587Z,101095.76
2018-07-26T04:41:10.470Z,101098.63
2018-07-26T04:43:39.390Z,101096.44
2018-07-26T04:46:08.254Z,101091.57
2018-07-26T04:48:37.367Z,101095.19
2018-07-26T04:51:06.616Z,101091.18
2018-07-26T04:53:35.649Z,101090.19
2018-07-26T04:56:04.613Z,101091.18
2018-07-26T04:58:33.502Z,101082.53
2018-07-26T05:01:02.419Z,101091.15
2018-07-26T05:03:31.277Z,101094.91
2018-07-26T05:06:00.187Z,101092.64
2018-07-26T05:08:29.108Z,101097.32
2018-07-26T05:10:57.988Z,101090.09
2018-07-26T05:13:26.931Z,101096.58
2018-07-26T05:15:55.796Z,101092.00
2018-07-26T05:18:26.279Z,101096.12
2018-07-26T05:20:55.062Z,101093.33
2018-07-26T05:23:23.942Z,101097.53
2018-07-26T05:25:52.767Z,101099.50
2018-07-26T05:28:21.727Z,101094.56
2018-07-26T05:30:50.575Z,101094.20
2018-07-26T05:33:19.570Z,101096.45
2018-07-26T05:35:48.499Z,101094.27
2018-07-26T05:38:17.380Z,101096.13
2018-07-26T05:40:46.316Z,101091.32
2018-07-26T05:43:15.295Z,101092.88
2018-07-26T05:45:44.052Z,101095.86
2018-07-26T05:48:12.923Z,101094.23
2018-07-26T05:50:41.798Z,101090.11
2018-07-26T05:53:10.729Z,101094.20
2018-07-26T05:55:39.531Z,101093.39
2018-07-26T05:58:08.515Z,101096.73
2018-07-26T06:00:37.399Z,101096.48
2018-07-26T06:03:06.358Z,101097.87
2018-07-26T06:05:35.235Z,101091.38
2018-07-26T06:08:04.098Z,101090.75
2018-07-26T06:10:32.983Z,101092.38
2018-07-26T06:13:01.857Z,101093.02
2018-07-26T06:15:30.698Z,101087.08
2018-07-26T06:17:59.618Z,101095.92
2018-07-26T06:20:28.593Z,101104.30
2018-07-26T06:22:57.414Z,101103.42
2018-07-26T06:25:26.411Z,101102.73
2018-07-26T06:27:55.440Z,101098.16
2018-07-26T06:30:24.297Z,101101.45
2018-07-26T06:32:53.223Z,101096.91
2018-07-26T06:35:22.082Z,101093.18
2018-07-26T06:37:51.022Z,101093.50
2018-07-26T06:40:19.852Z,101087.90
2018-07-26T06:42:48.765Z,101088.13
2018-07-26T06:45:17.662Z,101086.48
2018-07-26T06:47:46.743Z,101090.70
2018-07-26T06:50:15.644Z,101079.49
2018-07-26T06:52:44.533Z,101085.00
2018-07-26T06:55:13.391Z,101079.52
2018-07-26T06:57:42.255Z,101078.88
2018-07-26T07:00:11.319Z,101085.84
2018-07-26T07:02:40.631Z,101083.74
2018-07-26T07:05:10.135Z,101080.41
2018-07-26T07:07:39.373Z,101071.55
2018-07-26T07:10:08.295Z,101073.63
2018-07-26T07:12:39.392Z,101073.92
2018-07-26T07:15:11.111Z,101071.91
2018-07-26T07:17:40.290Z,101068.91
2018-07-26T07:20:10.238Z,101068.16
2018-07-26T07:22:44.237Z,101071.01
2018-07-26T07:25:16.076Z,101070.73
2018-07-26T07:27:45.816Z,101071.28
2018-07-26T07:30:16.929Z,101070.19
2018-07-26T07:32:46.483Z,101075.02
2018-07-26T07:35:26.637Z,101073.58
2018-07-26T07:38:03.138Z,101073.58
2018-07-26T07:40:34.257Z,101073.00
2018-07-26T07:43:03.447Z,101070.20
2018-07-26T07:45:35.053Z,101075.00
2018-07-26T07:48:06.354Z,101078.81
2018-07-26T07:50:33.918Z,101074.61
2018-07-26T07:53:03.431Z,101068.65
2018-07-26T07:55:39.729Z,101068.55
2018-07-26T07:58:04.267Z,101066.98
2018-07-26T08:00:33.149Z,101064.11
2018-07-26T08:03:02.109Z,101063.77
2018-07-26T08:05:30.954Z,101059.41
2018-07-26T08:07:59.801Z,101058.83
2018-07-26T08:10:28.688Z,101055.69
2018-07-26T08:12:57.554Z,101052.58
2018-07-26T08:15:26.462Z,101054.22
2018-07-26T08:17:55.329Z,101061.31
2018-07-26T08:20:24.233Z,101060.69
2018-07-26T08:22:53.134Z,101058.20
2018-07-26T08:25:21.995Z,101054.47
2018-07-26T08:27:50.852Z,101057.16
2018-07-26T08:30:19.851Z,101053.10
2018-07-26T08:32:48.719Z,101054.34
2018-07-26T08:35:17.602Z,101046.78
2018-07-26T08:37:46.483Z,101050.55
2018-07-26T08:40:15.413Z,101047.95
2018-07-26T08:42:44.289Z,101045.47
2018-07-26T08:45:13.146Z,101047.28
2018-07-26T08:47:42.063Z,101048.61
2018-07-26T08:50:10.941Z,101049.84
2018-07-26T08:52:42.778Z,101049.20
2018-07-26T08:55:11.711Z,101045.58
2018-07-26T08:57:40.546Z,101044.38
2018-07-26T09:00:09.845Z,101044.25
2018-07-26T09:02:38.693Z,101044.03
2018-07-26T09:05:07.744Z,101041.38
2018-07-26T09:07:36.583Z,101043.90
2018-07-26T09:10:05.477Z,101048.50
2018-07-26T09:12:34.365Z,101040.36
2018-07-26T09:15:03.432Z,101042.09
2018-07-26T09:17:32.308Z,101039.00
2018-07-26T09:20:01.153Z,101032.89
2018-07-26T09:22:29.997Z,101035.72
2018-07-26T09:24:58.841Z,101028.72
2018-07-26T09:27:27.718Z,101030.31
2018-07-26T09:29:56.653Z,101024.72
2018-07-26T09:32:25.488Z,101024.30
2018-07-26T09:34:54.418Z,101027.31
2018-07-26T09:37:23.380Z,101015.34
2018-07-26T09:39:52.247Z,101025.77
2018-07-26T09:42:21.141Z,101024.20
2018-07-26T09:44:50.071Z,101026.20
2018-07-26T09:47:18.859Z,101015.76
2018-07-26T09:49:47.734Z,101021.72
2018-07-26T09:52:16.601Z,101023.77
2018-07-26T09:54:45.496Z,101023.55
2018-07-26T09:57:14.495Z,101021.62
2018-07-26T09:59:43.300Z,101025.41
2018-07-26T10:02:12.159Z,101015.92
2018-07-26T10:04:41.033Z,101014.68
2018-07-26T10:07:09.960Z,101005.30
2018-07-26T10:09:38.751Z,101007.16
2018-07-26T10:12:07.603Z,101011.62
2018-07-26T10:14:36.449Z,101012.50
2018-07-26T10:17:05.421Z,101013.41
2018-07-26T10:19:34.295Z,101003.84
2018-07-26T10:22:09.436Z,101007.41
2018-07-26T10:24:38.358Z,100997.27
2018-07-26T10:27:07.227Z,101003.92
2018-07-26T10:29:36.088Z,101009.00
2018-07-26T10:32:05.024Z,101004.13
2018-07-26T10:34:33.969Z,100996.70
2018-07-26T10:37:02.842Z,100997.20
2018-07-26T10:39:31.677Z,100991.77
2018-07-26T10:42:00.578Z,100991.83
2018-07-26T10:44:29.499Z,100999.11
2018-07-26T10:46:58.377Z,100992.11
2018-07-26T10:49:27.285Z,100990.08
2018-07-26T10:51:56.178Z,100996.81
2018-07-26T10:54:25.066Z,100984.53
2018-07-26T10:56:53.979Z,100995.38
2018-07-26T10:59:22.843Z,100990.34
2018-07-26T11:01:51.809Z,100992.94
2018-07-26T11:04:20.592Z,100987.95
2018-07-26T11:06:49.531Z,100984.45
2018-07-26T11:09:18.383Z,100985.87
2018-07-26T11:11:47.312Z,100986.94
2018-07-26T11:14:16.204Z,100979.81
2018-07-26T11:16:45.075Z,100977.41
2018-07-26T11:19:14.050Z,100987.50
2018-07-26T11:21:42.883Z,100971.33
2018-07-26T11:24:11.770Z,100975.53
2018-07-26T11:26:40.732Z,100977.55
2018-07-26T11:29:09.616Z,100982.98
2018-07-26T11:31:38.485Z,100976.25
2018-07-26T11:34:07.388Z,100972.53
2018-07-26T11:36:36.251Z,100971.64
2018-07-26T11:39:07.988Z,100973.95
2018-07-26T11:41:37.076Z,100965.55
2018-07-26T11:44:06.286Z,100965.50
2018-07-26T11:46:35.239Z,100971.38
2018-07-26T11:49:04.138Z,100972.34
2018-07-26T11:51:33.125Z,100968.21
2018-07-26T11:54:01.918Z,100963.39
2018-07-26T11:56:30.771Z,100965.55
2018-07-26T11:58:59.668Z,100959.13
2018-07-26T12:01:28.468Z,100963.45
2018-07-26T12:03:57.433Z,100958.37
2018-07-26T12:06:26.225Z,100945.23
2018-07-26T12:08:55.105Z,100942.73
2018-07-26T12:11:24.322Z,100943.97
2018-07-26T12:13:53.217Z,100952.28
2018-07-26T12:16:22.086Z,100947.48
2018-07-26T12:18:50.945Z,100941.52
2018-07-26T12:21:19.821Z,100938.36
2018-07-26T12:23:48.775Z,100932.75
2018-07-26T12:26:17.653Z,100930.90
2018-07-26T12:28:46.569Z,100932.06
2018-07-26T12:31:15.468Z,100915.88
2018-07-26T12:33:44.322Z,100926.05
2018-07-26T12:36:13.989Z,100931.07
2018-07-26T12:38:42.842Z,100915.63
2018-07-26T12:41:11.736Z,100916.99
2018-07-26T12:43:40.689Z,100907.50
2018-07-26T12:46:09.497Z,100907.44
2018-07-26T12:48:38.653Z,100910.58
2018-07-26T12:51:07.495Z,100904.63
2018-07-26T12:53:36.571Z,100897.86
2018-07-26T12:56:05.486Z,100897.66
2018-07-26T12:58:34.371Z,100899.91
2018-07-26T13:01:03.251Z,100902.33
2018-07-26T13:03:32.135Z,100899.66
2018-07-26T13:06:00.980Z,100901.81
2018-07-26T13:08:29.861Z,100901.75
2018-07-26T13:10:58.718Z,100901.42
2018-07-26T13:13:27.629Z,100898.55
2018-07-26T13:16:00.045Z,100898.47
2018-07-26T13:18:28.905Z,100878.95
2018-07-26T13:20:57.833Z,100896.81
2018-07-26T13:23:26.771Z,100884.48
2018-07-26T13:25:55.679Z,100887.14
2018-07-26T13:28:24.540Z,100877.61
2018-07-26T13:30:53.385Z,100880.61
2018-07-26T13:33:22.290Z,100888.23
2018-07-26T13:35:51.133Z,100874.52
2018-07-26T13:43:03.262Z,100862.61
2018-07-26T13:45:32.077Z,100864.78
2018-07-26T13:48:00.983Z,100857.61
2018-07-26T13:50:29.954Z,100856.49
2018-07-26T13:52:58.921Z,100857.17
2018-07-26T13:55:27.759Z,100859.00
2018-07-26T13:57:56.756Z,100859.61
2018-07-26T14:00:25.543Z,100855.78
2018-07-26T14:02:54.453Z,100846.59
2018-07-26T14:05:26.214Z,100840.84
2018-07-26T14:07:55.068Z,100843.58
2018-07-26T14:10:23.987Z,100840.41
2018-07-26T14:12:52.844Z,100837.41
2018-07-26T14:15:21.858Z,100832.16
2018-07-26T14:17:50.657Z,100828.73
2018-07-26T14:20:19.535Z,100834.23
2018-07-26T14:22:48.434Z,100827.22
2018-07-26T14:25:17.278Z,100826.56
2018-07-26T14:27:53.673Z,100830.97
2018-07-26T14:30:22.565Z,100825.65
2018-07-26T14:32:51.588Z,100817.81
2018-07-26T14:35:20.463Z,100819.16
2018-07-26T14:37:49.405Z,100817.08
2018-07-26T14:40:18.324Z,100810.97
2018-07-26T14:42:47.213Z,100806.20
2018-07-26T14:45:16.065Z,100800.77
2018-07-26T14:47:44.957Z,100812.20
2018-07-26T14:50:17.214Z,100804.27
2018-07-26T14:52:46.145Z,100806.85
2018-07-26T14:55:15.061Z,100803.28
2018-07-26T14:57:43.955Z,100813.88
2018-07-26T15:00:12.918Z,100808.86
2018-07-26T15:02:41.737Z,100804.27
2018-07-26T15:05:10.605Z,100805.78
2018-07-26T15:07:39.476Z,100798.27
2018-07-26T15:10:08.712Z,100807.60
2018-07-26T15:12:37.733Z,100807.58
2018-07-26T15:15:07.365Z,100798.75
2018-07-26T15:17:36.256Z,100795.58
2018-07-26T15:20:05.778Z,100802.87
2018-07-26T15:22:34.652Z,100795.91
2018-07-26T15:25:03.534Z,100792.60
2018-07-26T15:27:32.406Z,100796.98
2018-07-26T15:30:01.280Z,100797.89
2018-07-26T15:32:30.274Z,100788.67
2018-07-26T15:34:59.069Z,100799.70
2018-07-26T15:37:27.947Z,100794.59
2018-07-26T15:39:56.971Z,100799.95
2018-07-26T15:42:25.826Z,100799.13
2018-07-26T15:44:54.731Z,100811.92
2018-07-26T15:47:23.606Z,100813.02
2018-07-26T15:49:52.468Z,100813.60
2018-07-26T15:52:21.409Z,100814.25
2018-07-26T15:54:53.068Z,100806.08
2018-07-26T15:57:22.003Z,100802.58
2018-07-26T15:59:50.787Z,100800.34
2018-07-26T16:02:19.661Z,100803.42
2018-07-26T16:04:48.509Z,100799.25
2018-07-26T16:07:17.415Z,100795.18
2018-07-26T16:09:46.294Z,100789.67
2018-07-26T16:12:15.416Z,100776.14
2018-07-26T16:14:44.177Z,100773.04
2018-07-26T16:17:13.186Z,100777.24
2018-07-26T16:19:42.205Z,100779.03
2018-07-26T16:22:11.119Z,100779.39
2018-07-26T16:24:39.888Z,100778.34
2018-07-26T16:27:08.795Z,100774.24
2018-07-26T16:29:37.656Z,100778.48
2018-07-26T16:32:06.493Z,100778.22
2018-07-26T16:34:35.360Z,100781.12
2018-07-26T16:37:04.186Z,100784.36
2018-07-26T16:39:33.056Z,100782.08
2018-07-26T16:42:01.956Z,100782.95
2018-07-26T16:44:30.784Z,100780.39
2018-07-26T16:46:59.665Z,100777.00
2018-07-26T16:49:28.511Z,100788.44
2018-07-26T16:51:57.353Z,100777.81
2018-07-26T16:54:26.239Z,100775.39
2018-07-26T16:56:55.099Z,100775.08
2018-07-26T16:59:23.989Z,100774.94
2018-07-26T17:01:59.821Z,100768.70
2018-07-26T17:04:28.684Z,100765.56
2018-07-26T17:06:57.575Z,100771.16
2018-07-26T17:09:26.519Z,100762.62
2018-07-26T17:11:55.342Z,100763.45
2018-07-26T17:14:24.204Z,100761.79
2018-07-26T17:16:53.074Z,100763.38
2018-07-26T17:19:21.904Z,100767.69
2018-07-26T17:21:50.762Z,100772.91
2018-07-26T17:24:22.642Z,100772.97
2018-07-26T17:26:51.521Z,100777.41
2018-07-26T17:29:20.425Z,100780.34
2018-07-26T17:31:49.307Z,100786.45
2018-07-26T17:34:18.107Z,100789.98
2018-07-26T17:36:47.020Z,100783.69
2018-07-26T17:39:15.893Z,100787.89
2018-07-26T17:41:44.801Z,100791.44
2018-07-26T17:44:13.739Z,100791.49
2018-07-26T17:47:00.414Z,100788.72
2018-07-26T17:49:29.291Z,100787.44
2018-07-26T17:51:58.180Z,100789.78
2018-07-26T17:54:27.027Z,100778.66
2018-07-26T17:56:55.980Z,100779.23
2018-07-26T17:59:24.790Z,100780.64
2018-07-26T18:01:53.669Z,100784.85
2018-07-26T18:04:22.516Z,100779.67
2018-07-26T18:06:51.383Z,100795.34
2018-07-26T18:09:20.296Z,100796.80
2018-07-26T18:11:49.261Z,100795.50
2018-07-26T18:14:18.134Z,100799.03
2018-07-26T18:16:47.032Z,100798.30
2018-07-26T18:19:15.907Z,100798.43
2018-07-26T18:21:44.830Z,100805.28
2018-07-26T18:24:13.696Z,100800.02
2018-07-26T18:26:42.578Z,100802.90
2018-07-26T18:29:11.509Z,100806.98
2018-07-26T18:31:41.902Z,100805.38
2018-07-26T18:34:10.590Z,100813.54
2018-07-26T18:36:39.450Z,100816.95
2018-07-26T18:39:10.344Z,100833.91
2018-07-26T18:41:39.242Z,100833.73
2018-07-26T18:44:09.119Z,100832.03
2018-07-26T18:46:38.637Z,100835.95
2018-07-26T18:49:08.609Z,100827.78
2018-07-26T18:51:37.430Z,100837.52
2018-07-26T18:54:06.325Z,100826.73
2018-07-26T18:56:35.305Z,100823.92
2018-07-26T18:59:04.220Z,100824.79
2018-07-26T19:01:33.098Z,100828.17
2018-07-26T19:04:01.972Z,100824.02
2018-07-26T19:06:30.880Z,100825.77
2018-07-26T19:08:59.763Z,100835.06
2018-07-26T19:11:28.658Z,100824.73
2018-07-26T19:14:33.478Z,100830.08
2018-07-26T19:17:02.266Z,100829.03
2018-07-26T19:19:31.235Z,100837.97
2018-07-26T19:22:00.123Z,100842.02
2018-07-26T19:24:29.162Z,100855.28
2018-07-26T19:26:58.086Z,100862.36
2018-07-26T19:29:26.979Z,100864.93
2018-07-26T19:31:55.825Z,100865.21
2018-07-26T19:34:25.079Z,100868.02
2018-07-26T19:37:01.333Z,100875.92
2018-07-26T19:39:30.250Z,100875.06
2018-07-26T19:41:59.158Z,100880.39
2018-07-26T19:44:28.017Z,100878.43
2018-07-26T19:46:56.927Z,100876.50
2018-07-26T19:49:25.854Z,100878.75
2018-07-26T19:51:54.670Z,100887.73
2018-07-26T19:54:23.572Z,100884.69
2018-07-26T19:56:52.623Z,100881.91
2018-07-26T19:59:21.609Z,100886.16
2018-07-26T20:01:50.597Z,100885.31
2018-07-26T20:04:19.687Z,100881.37
2018-07-26T20:06:48.564Z,100881.09
2018-07-26T20:09:17.674Z,100876.63
2018-07-26T20:11:46.572Z,100885.32
2018-07-26T20:14:15.433Z,100883.09
2018-07-26T20:19:37.463Z,100881.16
2018-07-26T20:22:06.359Z,100876.94
2018-07-26T20:24:35.331Z,100872.75
2018-07-26T20:27:04.321Z,100874.70
2018-07-26T20:29:33.192Z,100878.89
2018-07-26T20:32:02.269Z,100872.69
2018-07-26T20:34:31.146Z,100873.58
2018-07-26T20:37:02.843Z,100876.66
2018-07-26T20:39:31.823Z,100868.52
2018-07-26T20:42:00.742Z,100869.09
2018-07-26T20:44:29.730Z,100870.48
2018-07-26T20:46:58.749Z,100871.03
2018-07-26T20:49:27.610Z,100870.19
2018-07-26T20:51:56.623Z,100875.78
2018-07-26T20:54:25.610Z,100871.88
2018-07-26T20:56:54.526Z,100873.83
2018-07-26T20:59:23.464Z,100876.34
2018-07-26T21:01:52.394Z,100878.88
2018-07-26T21:04:21.264Z,100878.87
2018-07-26T21:06:50.294Z,100876.89
2018-07-26T21:09:19.224Z,100880.80
2018-07-26T21:11:48.179Z,100878.88
2018-07-26T21:14:17.157Z,100876.05
2018-07-26T21:16:46.074Z,100881.37
2018-07-26T21:19:15.000Z,100878.84
2018-07-26T21:21:43.886Z,100880.25
2018-07-26T21:24:12.939Z,100881.63
2018-07-26T21:26:42.048Z,100882.44
2018-07-26T21:29:10.944Z,100887.47
2018-07-26T21:31:39.776Z,100890.84
2018-07-26T21:34:08.758Z,100893.40
2018-07-26T21:36:37.672Z,100900.14
2018-07-26T21:39:08.496Z,100899.60
2018-07-26T21:41:37.350Z,100899.59
2018-07-26T21:44:07.963Z,100900.73
2018-07-26T21:46:35.317Z,100909.42
2018-07-26T21:49:04.206Z,100903.25
2018-07-26T21:51:33.146Z,100909.42
2018-07-26T21:54:02.062Z,100900.45
2018-07-26T21:56:30.940Z,100904.38
2018-07-26T21:58:59.900Z,100898.48
2018-07-26T22:01:28.761Z,100901.28
2018-07-26T22:03:57.677Z,100897.94
2018-07-26T22:06:26.540Z,100893.16
2018-07-26T22:08:55.577Z,100892.88
2018-07-26T22:11:24.468Z,100896.80
2018-07-26T22:13:53.414Z,100891.47
2018-07-26T22:16:22.294Z,100891.47
2018-07-26T22:18:51.194Z,100903.23
2018-07-26T22:21:20.068Z,100892.30
2018-07-26T22:23:48.902Z,100901.81
2018-07-26T22:26:17.838Z,100893.95
2018-07-26T22:28:46.679Z,100900.12
2018-07-26T22:31:18.598Z,100904.03
2018-07-26T22:33:47.466Z,100903.73
2018-07-26T22:36:16.353Z,100898.10
2018-07-26T22:38:45.213Z,100905.66
2018-07-26T22:41:14.142Z,100903.44
2018-07-26T22:43:43.015Z,100899.20
2018-07-26T22:46:11.848Z,100896.11
2018-07-26T22:48:40.759Z,100900.28
2018-07-26T22:51:09.663Z,100897.48
2018-07-26T22:53:38.699Z,100901.73
2018-07-26T22:56:07.536Z,100901.11
2018-07-26T22:58:36.435Z,100906.95
2018-07-26T23:01:05.358Z,100899.11
2018-07-26T23:03:34.185Z,100898.27
2018-07-26T23:06:03.069Z,100894.60
2018-07-26T23:08:31.983Z,100896.84
2018-07-26T23:11:00.846Z,100895.70
2018-07-26T23:13:29.762Z,100892.58
2018-07-26T23:15:58.667Z,100890.87
2018-07-26T23:18:27.577Z,100896.20
2018-07-26T23:20:56.472Z,100892.00
2018-07-26T23:23:25.536Z,100891.52
2018-07-26T23:25:54.354Z,100886.08
2018-07-26T23:28:23.212Z,100892.78
2018-07-26T23:30:52.114Z,100891.06
2018-07-26T23:33:21.024Z,100888.53
2018-07-26T23:35:49.877Z,100889.62
2018-07-26T23:38:18.844Z,100887.36
2018-07-26T23:40:47.770Z,100893.23
2018-07-26T23:43:16.668Z,100887.87
2018-07-26T23:45:45.578Z,100888.44
2018-07-26T23:48:15.392Z,100887.24
2018-07-26T23:50:44.276Z,100886.63
2018-07-26T23:53:13.259Z,100896.37
2018-07-26T23:55:42.096Z,100899.45
2018-07-26T23:58:10.959Z,100892.18
